Time;durP1;ratioP1;P1;durP2;ratioP2;P2;SDS_P1;SDS_P2;PMS_P1;PMS_P2;Temp;Humidity;BMP_temperature;BMP_pressure;BME280_temperature;BME280_humidity;BME280_pressure;Samples;Min_cycle;Max_cycle;Signal;HPM_P1;HPM_P2
2021/10/12 00:01:45;;;;;;;12.43;8.17;;;6.50;99.90;;;;;;5087085;28;20480;-58
2021/10/12 00:04:12;;;;;;;17.10;9.30;;;6.50;99.90;;;;;;5073912;28;20453;-57
2021/10/12 00:06:40;;;;;;;14.27;8.63;;;6.60;99.90;;;;;;5089800;28;20453;-58
2021/10/12 00:09:07;;;;;;;11.90;7.13;;;6.70;99.90;;;;;;5092913;28;21005;-57
2021/10/12 00:11:34;;;;;;;12.90;8.37;;;6.60;99.90;;;;;;5091408;28;20809;-57
2021/10/12 00:14:01;;;;;;;11.27;7.40;;;6.40;99.90;;;;;;5093975;28;20515;-57
2021/10/12 00:16:28;;;;;;;11.03;7.27;;;6.40;99.90;;;;;;5076784;28;20463;-58
2021/10/12 00:18:55;;;;;;;9.50;6.27;;;6.40;99.90;;;;;;5075877;28;20487;-57
2021/10/12 00:21:22;;;;;;;10.83;6.83;;;6.30;99.90;;;;;;5092283;28;20450;-57
2021/10/12 00:23:51;;;;;;;11.40;6.60;;;6.20;99.90;;;;;;5093814;28;20462;-58
2021/10/12 00:26:18;;;;;;;9.90;6.60;;;6.20;99.90;;;;;;5084445;28;20507;-57
2021/10/12 00:28:45;;;;;;;10.53;6.43;;;6.30;99.90;;;;;;5093412;28;20442;-57
2021/10/12 00:31:12;;;;;;;8.40;5.90;;;6.50;99.90;;;;;;5078381;28;20458;-57
2021/10/12 00:33:39;;;;;;;9.20;5.83;;;6.40;99.90;;;;;;5086254;28;21217;-57
2021/10/12 00:36:06;;;;;;;11.40;6.67;;;6.40;99.90;;;;;;5084659;28;20508;-58
2021/10/12 00:38:33;;;;;;;10.33;7.00;;;6.30;99.90;;;;;;5073168;28;20557;-58
2021/10/12 00:41:01;;;;;;;12.63;6.60;;;6.30;99.90;;;;;;5073597;28;20450;-57
2021/10/12 00:43:28;;;;;;;10.70;6.90;;;6.40;99.90;;;;;;5077738;28;20446;-57
2021/10/12 00:45:57;;;;;;;10.67;5.97;;;6.50;99.90;;;;;;5073489;28;20507;-57
2021/10/12 00:48:24;;;;;;;11.50;6.60;;;6.60;99.90;;;;;;5073237;28;20557;-58
2021/10/12 00:50:51;;;;;;;10.40;6.70;;;6.60;99.90;;;;;;5072864;28;20455;-58
2021/10/12 00:53:18;;;;;;;11.33;6.43;;;6.50;99.90;;;;;;5073466;28;20509;-58
2021/10/12 00:55:46;;;;;;;10.10;6.43;;;6.50;99.90;;;;;;5073061;28;20458;-57
2021/10/12 00:58:15;;;;;;;11.50;6.87;;;6.30;99.90;;;;;;5073142;28;20483;-58
2021/10/12 01:00:44;;;;;;;8.53;5.63;;;6.20;99.90;;;;;;5087636;28;20507;-57
2021/10/12 01:03:11;;;;;;;12.30;6.50;;;6.10;99.90;;;;;;5092840;28;20452;-57
2021/10/12 01:05:40;;;;;;;11.90;6.80;;;6.00;99.90;;;;;;5093071;28;20936;-57
2021/10/12 01:08:07;;;;;;;8.60;6.50;;;5.90;99.90;;;;;;5091230;28;20472;-58
2021/10/12 01:10:34;;;;;;;11.10;6.60;;;5.90;99.90;;;;;;5079552;28;20504;-58
2021/10/12 01:13:02;;;;;;;10.10;6.50;;;6.00;99.90;;;;;;5073847;28;20512;-58
2021/10/12 01:15:34;;;;;;;11.83;6.50;;;5.90;99.90;;;;;;5072994;28;20481;-58
2021/10/12 01:18:02;;;;;;;10.07;6.50;;;6.10;99.90;;;;;;5079420;28;20818;-57
2021/10/12 01:20:36;;;;;;;10.30;6.13;;;6.20;99.90;;;;;;5071967;28;20515;-57
2021/10/12 01:23:05;;;;;;;9.43;6.23;;;6.20;99.90;;;;;;5072328;28;21021;-58
2021/10/12 01:25:34;;;;;;;9.80;5.83;;;6.20;99.90;;;;;;5083886;28;20503;-58
2021/10/12 01:28:01;;;;;;;10.43;6.47;;;6.20;99.90;;;;;;5084852;28;20519;-57
2021/10/12 01:30:28;;;;;;;8.43;5.97;;;6.20;99.90;;;;;;5086861;28;20461;-59
2021/10/12 01:32:55;;;;;;;8.90;5.73;;;6.20;99.90;;;;;;5079253;28;20451;-58
2021/10/12 01:35:22;;;;;;;8.67;6.50;;;6.20;99.90;;;;;;5092718;28;20526;-58
2021/10/12 01:37:50;;;;;;;9.93;6.80;;;6.30;99.90;;;;;;5085888;28;20467;-58
2021/10/12 01:40:19;;;;;;;10.23;6.73;;;6.30;99.90;;;;;;5071910;28;20529;-59
2021/10/12 01:42:46;;;;;;;10.40;6.50;;;6.30;99.90;;;;;;5071079;28;20842;-58
2021/10/12 01:45:14;;;;;;;9.07;6.13;;;6.30;99.90;;;;;;5088783;28;20451;-58
2021/10/12 01:47:42;;;;;;;9.93;6.80;;;6.30;99.90;;;;;;5088997;28;20470;-58
2021/10/12 01:50:11;;;;;;;10.23;6.27;;;6.30;99.90;;;;;;5092181;28;20449;-58
2021/10/12 01:52:39;;;;;;;10.27;6.80;;;6.20;99.90;;;;;;5086535;28;20501;-57
2021/10/12 01:55:07;;;;;;;16.90;6.90;;;6.20;99.90;;;;;;5072281;28;20451;-58
2021/10/12 01:57:36;;;;;;;10.70;6.80;;;6.10;99.90;;;;;;5092105;28;20474;-58
2021/10/12 02:00:06;;;;;;;11.40;7.33;;;6.00;99.90;;;;;;5089698;28;20482;-58
2021/10/12 02:02:33;;;;;;;10.40;6.70;;;6.00;99.90;;;;;;5072106;28;20923;-58
2021/10/12 02:05:00;;;;;;;10.03;6.10;;;5.90;99.90;;;;;;5082283;28;20450;-57
2021/10/12 02:07:27;;;;;;;9.73;6.37;;;5.90;99.90;;;;;;5089489;28;20470;-58
2021/10/12 02:09:54;;;;;;;10.30;6.80;;;5.90;99.90;;;;;;5073230;28;20443;-58
2021/10/12 02:12:20;;;;;;;12.90;7.50;;;5.80;99.90;;;;;;5084269;28;20508;-58
2021/10/12 02:14:49;;;;;;;9.90;6.93;;;5.90;99.90;;;;;;5071807;28;20441;-58
2021/10/12 02:17:16;;;;;;;9.20;6.30;;;5.80;99.90;;;;;;5083263;28;20477;-59
2021/10/12 02:19:43;;;;;;;17.20;7.33;;;5.80;99.90;;;;;;5072298;28;20532;-58
2021/10/12 02:22:10;;;;;;;12.07;7.00;;;5.90;99.90;;;;;;5093608;28;20472;-58
2021/10/12 02:24:37;;;;;;;7.87;5.87;;;5.90;99.90;;;;;;5104426;28;20478;-59
2021/10/12 02:27:04;;;;;;;10.77;6.87;;;5.90;99.90;;;;;;5103305;28;20470;-59
2021/10/12 02:29:31;;;;;;;9.20;6.33;;;5.90;99.90;;;;;;5094900;28;20442;-58
2021/10/12 02:31:59;;;;;;;9.87;7.03;;;5.90;99.90;;;;;;5077891;28;20460;-58
2021/10/12 02:34:26;;;;;;;11.47;7.20;;;5.90;99.90;;;;;;5073366;28;20453;-59
2021/10/12 02:36:55;;;;;;;12.57;8.03;;;5.90;99.90;;;;;;5077501;28;20907;-59
2021/10/12 02:39:22;;;;;;;10.03;7.13;;;5.90;99.90;;;;;;5071532;28;20562;-59
2021/10/12 02:41:49;;;;;;;12.70;6.97;;;5.80;99.90;;;;;;5071397;28;20443;-59
2021/10/12 02:44:16;;;;;;;11.50;7.30;;;5.80;99.90;;;;;;5077254;28;20503;-59
2021/10/12 02:46:43;;;;;;;12.40;7.40;;;5.80;99.90;;;;;;5090900;28;20521;-59
2021/10/12 02:49:12;;;;;;;11.40;7.23;;;5.90;99.90;;;;;;5077781;28;20452;-59
2021/10/12 02:51:39;;;;;;;12.67;7.20;;;6.00;99.90;;;;;;5074786;28;20511;-59
2021/10/12 02:54:06;;;;;;;12.07;7.67;;;6.10;99.90;;;;;;5079148;28;20448;-59
2021/10/12 02:56:33;;;;;;;9.83;6.57;;;6.10;99.90;;;;;;5095025;28;20507;-58
2021/10/12 02:59:00;;;;;;;12.10;7.20;;;6.10;99.90;;;;;;5092468;28;20534;-59
2021/10/12 03:01:27;;;;;;;11.97;6.60;;;6.10;99.90;;;;;;5095311;28;20455;-59
2021/10/12 03:03:54;;;;;;;11.90;7.43;;;6.20;99.90;;;;;;5094372;28;20890;-59
2021/10/12 03:06:22;;;;;;;9.50;6.20;;;6.20;99.90;;;;;;5093320;28;20455;-58
2021/10/12 03:08:49;;;;;;;11.23;6.57;;;6.30;99.90;;;;;;5087147;28;20459;-59
2021/10/12 03:11:16;;;;;;;10.10;6.37;;;6.30;99.90;;;;;;5074973;28;20454;-59
2021/10/12 03:13:43;;;;;;;10.70;6.17;;;6.20;99.90;;;;;;5082280;28;20581;-59
2021/10/12 03:16:10;;;;;;;10.00;6.30;;;6.30;99.90;;;;;;5076165;28;20451;-59
2021/10/12 03:18:38;;;;;;;11.00;6.73;;;6.30;99.90;;;;;;5075212;28;20468;-59
2021/10/12 03:21:06;;;;;;;8.40;5.53;;;6.30;99.90;;;;;;5074885;28;20454;-59
2021/10/12 03:23:34;;;;;;;11.80;7.40;;;6.30;99.90;;;;;;5093510;28;20454;-59
2021/10/12 03:26:01;;;;;;;10.93;6.87;;;6.30;99.90;;;;;;5089529;28;20449;-59
2021/10/12 03:28:28;;;;;;;8.83;6.23;;;6.40;99.90;;;;;;5095092;28;20500;-59
2021/10/12 03:30:55;;;;;;;9.70;6.33;;;6.40;99.90;;;;;;5094192;28;20452;-59
2021/10/12 03:33:22;;;;;;;12.43;6.73;;;6.30;99.90;;;;;;5095258;28;20505;-60
2021/10/12 03:35:55;;;;;;;13.80;6.97;;;6.10;99.90;;;;;;5081049;28;20515;-59
2021/10/12 03:38:22;;;;;;;11.97;6.63;;;6.00;99.90;;;;;;5079704;28;20558;-59
2021/10/12 03:40:50;;;;;;;13.17;7.30;;;5.90;99.90;;;;;;5094577;28;21018;-59
2021/10/12 03:43:18;;;;;;;10.90;6.13;;;5.90;99.90;;;;;;5084242;28;20512;-59
2021/10/12 03:45:45;;;;;;;9.77;6.30;;;6.10;99.90;;;;;;5074913;28;20582;-59
2021/10/12 03:48:12;;;;;;;10.30;7.07;;;6.10;99.90;;;;;;5074499;28;20473;-59
2021/10/12 03:50:41;;;;;;;11.27;6.57;;;6.10;99.90;;;;;;5089380;28;20441;-59
2021/10/12 03:53:08;;;;;;;10.50;6.37;;;6.30;99.90;;;;;;5091292;28;21014;-58
2021/10/12 03:55:36;;;;;;;10.87;6.50;;;6.30;99.90;;;;;;5092697;28;20454;-59
2021/10/12 03:58:04;;;;;;;11.17;6.40;;;6.30;99.90;;;;;;5078962;28;20862;-59
2021/10/12 04:00:35;;;;;;;13.20;6.63;;;6.30;99.90;;;;;;5086285;28;20558;-59
2021/10/12 04:03:02;;;;;;;10.63;6.57;;;6.30;99.90;;;;;;5091365;28;20815;-59
2021/10/12 04:05:29;;;;;;;11.53;6.30;;;6.30;99.90;;;;;;5081562;28;20475;-58
2021/10/12 04:07:56;;;;;;;8.73;6.23;;;6.30;99.90;;;;;;5074171;28;20478;-59
2021/10/12 04:10:24;;;;;;;8.57;5.90;;;6.30;99.90;;;;;;5073902;28;20504;-59
2021/10/12 04:12:50;;;;;;;9.03;5.77;;;6.40;99.90;;;;;;5089454;28;20955;-59
2021/10/12 04:15:19;;;;;;;9.77;6.13;;;6.40;99.90;;;;;;5093801;28;20897;-57
2021/10/12 04:17:46;;;;;;;10.47;6.87;;;6.40;99.90;;;;;;5079591;28;20473;-58
2021/10/12 04:20:13;;;;;;;9.53;5.70;;;6.30;99.90;;;;;;5089583;28;20531;-57
2021/10/12 04:22:40;;;;;;;9.93;6.37;;;6.20;99.90;;;;;;5094019;28;20931;-57
2021/10/12 04:25:08;;;;;;;9.60;6.23;;;6.20;99.90;;;;;;5091241;28;20486;-57
2021/10/12 04:27:35;;;;;;;11.50;6.50;;;6.30;99.90;;;;;;5075651;28;20470;-57
2021/10/12 04:30:03;;;;;;;11.03;6.80;;;6.40;99.90;;;;;;5093986;28;20979;-57
2021/10/12 04:32:32;;;;;;;10.70;7.10;;;6.50;99.90;;;;;;5093905;28;20504;-57
2021/10/12 04:34:59;;;;;;;12.70;7.30;;;6.40;99.90;;;;;;5077596;28;21035;-57
2021/10/12 04:37:26;;;;;;;10.37;7.03;;;6.30;99.90;;;;;;5073825;28;20540;-57
2021/10/12 04:39:53;;;;;;;11.93;7.33;;;6.30;99.90;;;;;;5086664;28;20488;-57
2021/10/12 04:42:21;;;;;;;11.07;7.17;;;6.20;99.90;;;;;;5092100;28;20586;-57
2021/10/12 04:44:49;;;;;;;11.00;6.63;;;6.30;99.90;;;;;;5093696;28;20442;-57
2021/10/12 04:47:16;;;;;;;14.03;7.60;;;6.40;99.90;;;;;;5085634;28;20478;-57
2021/10/12 04:49:45;;;;;;;13.83;7.10;;;6.40;99.90;;;;;;5093725;28;20445;-57
2021/10/12 04:52:12;;;;;;;12.73;7.43;;;6.30;99.90;;;;;;5076670;28;20449;-58
2021/10/12 04:54:39;;;;;;;12.10;7.70;;;6.40;99.90;;;;;;5088923;28;20494;-57
2021/10/12 04:57:07;;;;;;;10.30;7.40;;;6.20;99.90;;;;;;5101532;28;20466;-59
2021/10/12 04:59:37;;;;;;;11.63;7.47;;;6.10;99.90;;;;;;5091739;28;20474;-58
2021/10/12 05:02:04;;;;;;;16.33;7.77;;;6.20;99.90;;;;;;5093446;28;20448;-58
2021/10/12 05:04:31;;;;;;;10.57;6.50;;;6.10;99.90;;;;;;5093296;28;20449;-57
2021/10/12 05:07:00;;;;;;;12.87;6.97;;;6.10;99.90;;;;;;5092795;28;20508;-57
2021/10/12 05:09:27;;;;;;;15.57;7.00;;;6.20;99.90;;;;;;5092696;28;20499;-58
2021/10/12 05:11:54;;;;;;;12.80;7.70;;;6.10;99.90;;;;;;5093193;28;20831;-58
2021/10/12 05:14:22;;;;;;;10.40;6.60;;;6.10;99.90;;;;;;5092381;28;20441;-58
2021/10/12 05:16:50;;;;;;;9.33;6.43;;;6.20;99.90;;;;;;5073041;28;20474;-58
2021/10/12 05:19:17;;;;;;;9.83;6.60;;;6.30;99.90;;;;;;5091112;28;20802;-58
2021/10/12 05:21:44;;;;;;;12.20;6.50;;;6.20;99.90;;;;;;5092420;28;20495;-58
2021/10/12 05:24:13;;;;;;;10.30;6.30;;;6.30;99.90;;;;;;5090633;28;20839;-59
2021/10/12 05:26:41;;;;;;;8.43;5.80;;;6.30;99.90;;;;;;5070630;28;21118;-58
2021/10/12 05:29:11;;;;;;;8.47;4.70;;;6.30;99.90;;;;;;5071141;28;20446;-58
2021/10/12 05:31:39;;;;;;;8.80;4.83;;;6.30;99.90;;;;;;5076882;28;20438;-58
2021/10/12 05:34:07;;;;;;;7.13;4.47;;;6.40;99.90;;;;;;5090390;28;20566;-58
2021/10/12 05:36:34;;;;;;;7.07;4.63;;;6.40;99.90;;;;;;5096332;28;20864;-58
2021/10/12 05:39:01;;;;;;;8.13;5.17;;;6.40;99.90;;;;;;5101733;28;20442;-58
2021/10/12 05:41:29;;;;;;;9.53;5.50;;;6.50;99.90;;;;;;5087891;28;20536;-58
2021/10/12 05:43:56;;;;;;;8.33;5.20;;;6.50;99.90;;;;;;5071190;28;20459;-59
2021/10/12 05:46:23;;;;;;;9.50;5.80;;;6.40;99.90;;;;;;5071313;28;20500;-58
2021/10/12 05:48:50;;;;;;;9.43;5.77;;;6.40;99.90;;;;;;5085473;28;20453;-58
2021/10/12 05:51:21;;;;;;;9.63;5.60;;;6.40;99.90;;;;;;5081496;28;20451;-58
2021/10/12 05:53:50;;;;;;;14.67;6.50;;;6.50;99.90;;;;;;5076245;28;20449;-58
2021/10/12 05:56:20;;;;;;;9.97;6.80;;;6.50;99.90;;;;;;5092464;28;20459;-58
2021/10/12 05:58:49;;;;;;;9.60;6.17;;;6.50;99.90;;;;;;5092973;28;20450;-58
2021/10/12 06:01:18;;;;;;;8.23;5.97;;;6.50;99.90;;;;;;5081762;28;20635;-58
2021/10/12 06:03:45;;;;;;;9.00;5.83;;;6.50;99.90;;;;;;5112065;28;21200;-57
2021/10/12 06:06:13;;;;;;;8.67;5.97;;;6.40;99.90;;;;;;5090902;28;20524;-57
2021/10/12 06:08:40;;;;;;;9.20;6.03;;;6.50;99.90;;;;;;5092542;28;20543;-57
2021/10/12 06:11:09;;;;;;;13.50;6.10;;;6.50;99.90;;;;;;5096814;28;20507;-57
2021/10/12 06:13:37;;;;;;;9.70;6.37;;;6.50;99.90;;;;;;5090106;28;20507;-57
2021/10/12 06:16:06;;;;;;;10.80;6.20;;;6.60;99.90;;;;;;5100750;28;20885;-57
2021/10/12 06:18:33;;;;;;;8.80;5.63;;;6.60;99.90;;;;;;5094966;28;20470;-57
2021/10/12 06:21:00;;;;;;;9.73;5.50;;;6.60;99.90;;;;;;5092874;28;20478;-57
2021/10/12 06:23:27;;;;;;;10.77;5.93;;;6.70;99.90;;;;;;5090807;28;20512;-57
2021/10/12 06:25:54;;;;;;;15.83;5.67;;;6.60;99.90;;;;;;5083518;28;20510;-57
2021/10/12 06:28:23;;;;;;;9.60;6.20;;;6.70;99.90;;;;;;5091393;28;20590;-57
2021/10/12 06:30:50;;;;;;;10.17;6.13;;;6.80;99.90;;;;;;5091740;28;20943;-57
2021/10/12 06:33:18;;;;;;;8.20;5.47;;;6.80;99.90;;;;;;5091916;28;20824;-57
2021/10/12 06:35:47;;;;;;;10.60;5.93;;;6.90;99.90;;;;;;5092127;28;20461;-57
2021/10/12 06:38:14;;;;;;;10.17;6.53;;;6.90;99.90;;;;;;5091885;28;20546;-57
2021/10/12 06:40:42;;;;;;;15.20;7.07;;;6.90;99.90;;;;;;5091544;28;20488;-57
2021/10/12 06:43:10;;;;;;;12.77;5.60;;;6.90;99.90;;;;;;5091807;28;20450;-57
2021/10/12 06:45:38;;;;;;;11.13;6.00;;;6.90;99.90;;;;;;5091763;28;20449;-57
2021/10/12 06:48:06;;;;;;;10.00;5.90;;;6.90;99.90;;;;;;5091641;28;21081;-57
2021/10/12 06:50:34;;;;;;;13.27;6.80;;;6.90;99.90;;;;;;5091574;28;20927;-57
2021/10/12 06:53:03;;;;;;;9.90;6.00;;;7.00;99.90;;;;;;5091788;28;20445;-57
2021/10/12 06:55:30;;;;;;;12.47;6.37;;;7.00;99.90;;;;;;5091375;28;20447;-57
2021/10/12 06:57:57;;;;;;;11.40;7.07;;;7.10;99.90;;;;;;5091232;28;20465;-57
2021/10/12 07:00:24;;;;;;;10.83;6.23;;;7.20;99.90;;;;;;5090501;28;20479;-57
2021/10/12 07:02:51;;;;;;;13.13;6.47;;;7.20;99.90;;;;;;5089994;28;20453;-57
2021/10/12 07:05:19;;;;;;;15.37;7.13;;;7.20;99.90;;;;;;5076032;28;20458;-57
2021/10/12 07:07:47;;;;;;;10.20;6.40;;;7.30;99.90;;;;;;5071387;28;20470;-57
2021/10/12 07:10:17;;;;;;;11.33;6.60;;;7.40;99.90;;;;;;5082480;28;20454;-56
2021/10/12 07:12:44;;;;;;;11.70;7.13;;;7.40;99.90;;;;;;5088954;28;20463;-57
2021/10/12 07:15:12;;;;;;;11.30;6.50;;;7.30;99.90;;;;;;5073000;28;20446;-56
2021/10/12 07:17:41;;;;;;;10.03;6.30;;;7.30;99.90;;;;;;5080817;28;20461;-57
2021/10/12 07:20:10;;;;;;;10.47;6.50;;;7.30;99.90;;;;;;5089455;28;20442;-57
2021/10/12 07:22:37;;;;;;;10.73;6.90;;;7.40;99.90;;;;;;5091417;28;20460;-57
2021/10/12 07:25:07;;;;;;;12.37;7.47;;;7.40;99.90;;;;;;5089972;28;20616;-57
2021/10/12 07:27:35;;;;;;;9.80;6.43;;;7.40;99.90;;;;;;5087506;28;20489;-57
2021/10/12 07:30:03;;;;;;;10.47;6.13;;;7.50;99.90;;;;;;5085477;28;20878;-58
2021/10/12 07:32:30;;;;;;;9.40;5.67;;;7.50;99.90;;;;;;5076507;28;20508;-57
2021/10/12 07:34:58;;;;;;;10.07;5.33;;;7.60;99.90;;;;;;5091311;28;20439;-57
2021/10/12 07:37:25;;;;;;;7.50;5.50;;;7.60;99.90;;;;;;5091339;28;20460;-57
2021/10/12 07:39:52;;;;;;;11.90;6.13;;;7.60;99.90;;;;;;5093629;28;20443;-57
2021/10/12 07:42:20;;;;;;;8.97;6.00;;;7.60;99.90;;;;;;5095002;28;20492;-57
2021/10/12 07:44:47;;;;;;;13.10;6.30;;;7.60;99.90;;;;;;5094629;28;20475;-57
2021/10/12 07:47:14;;;;;;;10.50;6.30;;;7.50;99.90;;;;;;5091935;28;20468;-57
2021/10/12 07:49:41;;;;;;;12.53;7.30;;;7.60;99.90;;;;;;5094933;28;20947;-57
2021/10/12 07:52:08;;;;;;;14.10;7.23;;;7.60;99.90;;;;;;5090010;28;20453;-57
2021/10/12 07:54:45;;;;;;;18.03;8.20;;;7.60;99.90;;;;;;5089370;28;20469;-57
2021/10/12 07:57:14;;;;;;;10.90;6.10;;;7.70;99.90;;;;;;5093357;28;20473;-57
2021/10/12 07:59:43;;;;;;;11.17;6.63;;;7.70;99.90;;;;;;5089655;28;20491;-57
2021/10/12 08:02:12;;;;;;;10.67;6.03;;;7.70;99.90;;;;;;5091973;28;20484;-57
2021/10/12 08:04:40;;;;;;;12.93;6.57;;;7.70;99.90;;;;;;5080637;28;20506;-57
2021/10/12 08:07:07;;;;;;;13.75;8.00;;;7.80;99.90;;;;;;5076660;28;20528;-58
2021/10/12 08:09:35;;;;;;;10.03;6.30;;;7.80;99.90;;;;;;5094475;28;20290;-57
2021/10/12 08:12:02;;;;;;;9.80;6.63;;;7.80;99.90;;;;;;5097206;28;20492;-58
2021/10/12 08:14:30;;;;;;;12.63;6.93;;;7.70;99.90;;;;;;5098590;28;20444;-58
2021/10/12 08:16:59;;;;;;;12.03;6.27;;;7.70;99.90;;;;;;5095321;28;20470;-58
2021/10/12 08:19:26;;;;;;;11.53;7.30;;;7.70;99.90;;;;;;5078148;28;20447;-57
2021/10/12 08:21:53;;;;;;;11.03;7.00;;;7.70;99.90;;;;;;5076131;28;20531;-57
2021/10/12 08:24:20;;;;;;;11.17;6.90;;;7.60;99.90;;;;;;5093523;28;20537;-57
2021/10/12 08:26:48;;;;;;;11.90;6.80;;;7.50;99.90;;;;;;5084456;28;20483;-56
2021/10/12 08:29:15;;;;;;;11.80;7.17;;;7.60;99.90;;;;;;5093822;28;20446;-56
2021/10/12 08:31:42;;;;;;;12.60;7.13;;;7.70;99.90;;;;;;5093917;28;20487;-56
2021/10/12 08:34:10;;;;;;;14.10;7.43;;;7.80;99.90;;;;;;5093919;28;20445;-57
2021/10/12 08:36:38;;;;;;;9.97;7.40;;;7.90;99.90;;;;;;5093608;28;20449;-56
2021/10/12 08:39:07;;;;;;;11.27;7.53;;;7.90;99.90;;;;;;5093910;28;20446;-56
2021/10/12 08:41:38;;;;;;;14.03;7.73;;;8.00;99.90;;;;;;5093438;28;20473;-56
2021/10/12 08:44:06;;;;;;;12.67;8.20;;;8.00;99.90;;;;;;5093526;28;20455;-58
2021/10/12 08:46:36;;;;;;;12.33;8.03;;;8.10;99.90;;;;;;5088177;28;20887;-58
2021/10/12 08:49:03;;;;;;;12.50;8.10;;;8.10;99.90;;;;;;5093593;28;20456;-58
2021/10/12 08:51:31;;;;;;;14.63;7.67;;;8.10;99.90;;;;;;5092946;28;20465;-57
2021/10/12 08:53:58;;;;;;;14.00;7.33;;;8.10;99.90;;;;;;5093576;28;20454;-58
2021/10/12 08:56:25;;;;;;;11.30;7.63;;;8.10;99.90;;;;;;5093436;28;20519;-59
2021/10/12 08:58:53;;;;;;;12.77;7.63;;;8.20;99.90;;;;;;5093524;28;20965;-57
2021/10/12 09:01:20;;;;;;;12.93;8.33;;;8.20;99.90;;;;;;5088101;28;20478;-58
2021/10/12 09:04:02;;;;;;;15.07;7.90;;;8.30;99.90;;;;;;5073357;28;20450;-58
2021/10/12 09:06:31;;;;;;;14.37;8.67;;;8.40;99.90;;;;;;5073942;28;20486;-57
2021/10/12 09:09:00;;;;;;;13.70;8.30;;;8.40;99.90;;;;;;5074100;28;20838;-58
2021/10/12 09:11:29;;;;;;;13.73;8.80;;;8.40;99.90;;;;;;5083714;28;20453;-57
2021/10/12 09:14:05;;;;;;;13.77;9.50;;;8.50;99.90;;;;;;5092816;28;20537;-58
2021/10/12 09:16:35;;;;;;;16.47;9.60;;;8.50;99.90;;;;;;5093253;28;20441;-58
2021/10/12 09:19:04;;;;;;;19.83;10.60;;;8.60;99.90;;;;;;5091705;28;20450;-58
2021/10/12 09:21:35;;;;;;;13.17;8.83;;;8.60;99.90;;;;;;5092472;28;20537;-58
2021/10/12 09:24:05;;;;;;;13.33;8.80;;;8.60;99.90;;;;;;5090104;28;20453;-58
2021/10/12 09:26:35;;;;;;;17.87;9.67;;;8.60;99.90;;;;;;5085764;28;20456;-58
2021/10/12 09:29:06;;;;;;;12.23;8.70;;;8.70;99.90;;;;;;5091092;28;20499;-58
2021/10/12 09:31:35;;;;;;;15.53;8.13;;;8.80;99.90;;;;;;5092601;28;20453;-58
2021/10/12 09:34:05;;;;;;;14.67;8.40;;;9.00;99.90;;;;;;5087692;28;20454;-58
2021/10/12 09:36:38;;;;;;;12.83;8.37;;;9.20;99.90;;;;;;5073041;28;20502;-57
2021/10/12 09:39:06;;;;;;;16.60;9.97;;;9.30;99.90;;;;;;5073350;28;20457;-57
2021/10/12 09:41:33;;;;;;;15.47;9.00;;;9.10;99.90;;;;;;5072116;28;20477;-58
2021/10/12 09:44:13;;;;;;;14.40;9.00;;;8.90;99.90;;;;;;5072159;28;21024;-58
2021/10/12 09:46:42;;;;;;;14.07;8.27;;;8.80;99.90;;;;;;5073756;28;20534;-58
2021/10/12 09:49:14;;;;;;;13.33;8.93;;;8.60;99.90;;;;;;5091661;28;20967;-58
2021/10/12 09:51:56;;;;;;;21.40;9.83;;;8.60;99.90;;;;;;5091389;28;20442;-58
2021/10/12 09:54:23;;;;;;;20.87;11.83;;;8.70;99.90;;;;;;5089043;28;20449;-58
2021/10/12 09:56:51;;;;;;;17.07;11.27;;;8.80;99.90;;;;;;5086185;28;20481;-57
2021/10/12 09:59:18;;;;;;;13.53;9.20;;;8.80;99.90;;;;;;5089190;28;20499;-57
2021/10/12 10:01:47;;;;;;;14.57;8.67;;;8.80;99.90;;;;;;5075559;28;20483;-57
2021/10/12 10:04:18;;;;;;;15.23;8.60;;;8.80;99.90;;;;;;5072142;28;20510;-56
2021/10/12 10:06:48;;;;;;;11.97;6.80;;;8.90;99.90;;;;;;5079448;28;20568;-57
2021/10/12 10:09:16;;;;;;;12.10;7.80;;;8.90;99.90;;;;;;5085328;28;20892;-56
2021/10/12 10:11:43;;;;;;;11.93;7.43;;;9.00;99.90;;;;;;5071490;28;20515;-57
2021/10/12 10:14:12;;;;;;;11.23;7.80;;;8.90;99.90;;;;;;5086425;28;20508;-57
2021/10/12 10:16:41;;;;;;;13.80;7.70;;;9.00;99.90;;;;;;5085137;28;20500;-57
2021/10/12 10:19:12;;;;;;;15.30;7.40;;;9.00;99.90;;;;;;5071859;28;20504;-56
2021/10/12 10:21:41;;;;;;;13.20;7.20;;;8.90;99.90;;;;;;5077597;28;20526;-57
2021/10/12 10:24:12;;;;;;;10.07;6.40;;;8.90;99.90;;;;;;5087848;28;20529;-57
2021/10/12 10:26:41;;;;;;;18.83;6.80;;;8.90;99.90;;;;;;5077208;28;20455;-56
2021/10/12 10:29:27;;;;;;;11.57;7.70;;;8.80;99.90;;;;;;5082793;28;21024;-57
2021/10/12 10:31:57;;;;;;;16.30;7.50;;;8.80;99.90;;;;;;5088893;28;20476;-56
2021/10/12 10:34:41;;;;;;;11.10;6.90;;;8.80;99.90;;;;;;5091749;28;20454;-57
2021/10/12 10:37:36;;;;;;;12.70;7.17;;;8.80;99.90;;;;;;5091682;28;20829;-56
2021/10/12 10:40:08;;;;;;;8.83;6.33;;;8.80;99.90;;;;;;5091823;28;20503;-56
2021/10/12 10:43:00;;;;;;;10.10;5.80;;;8.80;99.90;;;;;;5086834;28;20481;-57
2021/10/12 10:45:47;;;;;;;11.80;6.47;;;8.80;99.90;;;;;;5071710;28;20531;-57
2021/10/12 10:48:16;;;;;;;13.03;7.10;;;8.90;99.90;;;;;;5071465;28;20524;-57
2021/10/12 10:50:44;;;;;;;10.30;6.50;;;8.80;99.90;;;;;;5071107;28;20831;-57
2021/10/12 10:53:12;;;;;;;15.80;7.43;;;8.90;99.90;;;;;;5071444;28;21089;-57
2021/10/12 10:55:46;;;;;;;15.60;7.70;;;9.00;99.90;;;;;;5071540;28;20910;-57
2021/10/12 10:58:16;;;;;;;13.93;7.03;;;9.00;99.90;;;;;;5072611;28;20473;-57
2021/10/12 11:00:48;;;;;;;11.70;7.10;;;9.00;99.90;;;;;;5090485;28;20959;-57
2021/10/12 11:03:45;;;;;;;10.17;6.43;;;9.20;99.90;;;;;;5091304;28;20473;-57
2021/10/12 11:06:17;;;;;;;12.37;7.00;;;9.20;99.90;;;;;;5024342;28;20448;-57
2021/10/12 11:08:58;;;;;;;20.13;7.40;;;9.30;99.90;;;;;;5079087;28;20512;-57
2021/10/12 11:11:32;;;;;;;12.60;7.10;;;9.50;99.90;;;;;;5091110;28;20449;-57
2021/10/12 11:14:00;;;;;;;11.87;7.60;;;9.60;99.90;;;;;;5092016;28;20446;-57
2021/10/12 11:16:34;;;;;;;12.33;7.23;;;9.70;99.90;;;;;;5095493;28;20487;-57
2021/10/12 11:19:02;;;;;;;10.53;7.43;;;9.70;99.90;;;;;;5095315;28;21010;-56
2021/10/12 11:21:29;;;;;;;12.97;7.17;;;9.80;99.90;;;;;;5094936;28;20856;-57
2021/10/12 11:23:58;;;;;;;16.43;8.17;;;9.70;99.90;;;;;;5085378;28;20466;-57
2021/10/12 11:26:28;;;;;;;13.43;7.90;;;9.60;99.90;;;;;;5075067;28;20464;-57
2021/10/12 11:28:58;;;;;;;13.37;7.60;;;9.70;99.90;;;;;;5088943;28;20461;-57
2021/10/12 11:31:27;;;;;;;9.60;6.40;;;9.70;99.90;;;;;;5094473;28;20438;-57
2021/10/12 11:33:56;;;;;;;13.40;7.23;;;9.70;99.90;;;;;;5095218;28;20452;-57
2021/10/12 11:36:25;;;;;;;13.87;7.00;;;9.80;99.90;;;;;;5094766;28;20464;-57
2021/10/12 11:38:53;;;;;;;10.90;6.57;;;9.80;99.90;;;;;;5095031;28;20461;-58
2021/10/12 11:41:24;;;;;;;15.27;7.80;;;9.70;99.90;;;;;;5094778;28;20536;-57
2021/10/12 11:43:55;;;;;;;10.90;6.50;;;9.60;99.90;;;;;;5094327;28;20450;-57
2021/10/12 11:46:28;;;;;;;11.87;7.30;;;9.60;99.90;;;;;;5094083;28;20506;-57
2021/10/12 11:48:57;;;;;;;9.47;6.90;;;9.50;99.90;;;;;;5094170;28;20457;-57
2021/10/12 11:51:29;;;;;;;11.93;7.10;;;9.60;99.90;;;;;;5091909;28;21048;-58
2021/10/12 11:53:59;;;;;;;12.03;7.93;;;9.60;99.90;;;;;;5094679;28;20690;-57
2021/10/12 11:56:26;;;;;;;10.83;7.63;;;9.40;99.90;;;;;;5094377;28;20477;-57
2021/10/12 11:58:59;;;;;;;11.63;7.17;;;9.50;99.90;;;;;;5093110;28;20495;-57
2021/10/12 12:01:28;;;;;;;9.57;6.77;;;9.30;99.90;;;;;;5102411;28;20457;-57
2021/10/12 12:03:56;;;;;;;12.00;7.30;;;9.20;99.90;;;;;;5090621;28;20871;-59
2021/10/12 12:06:24;;;;;;;12.47;7.93;;;9.30;99.90;;;;;;5094050;28;20449;-59
2021/10/12 12:08:54;;;;;;;10.63;6.97;;;9.30;99.90;;;;;;5094187;28;20477;-58
2021/10/12 12:11:24;;;;;;;10.90;7.70;;;9.30;99.90;;;;;;5092280;28;20972;-59
2021/10/12 12:13:52;;;;;;;11.20;7.67;;;9.20;99.90;;;;;;5094168;28;20477;-59
2021/10/12 12:16:20;;;;;;;17.73;9.87;;;9.30;99.90;;;;;;5094546;28;20452;-59
2021/10/12 12:18:48;;;;;;;15.27;9.63;;;9.30;99.90;;;;;;5094262;28;20477;-59
2021/10/12 12:21:26;;;;;;;13.60;7.83;;;9.20;99.90;;;;;;5094232;28;20450;-59
2021/10/12 12:23:56;;;;;;;14.80;8.63;;;9.10;99.90;;;;;;5094183;28;20492;-58
2021/10/12 12:26:26;;;;;;;20.87;13.27;;;9.00;99.90;;;;;;5093327;28;20437;-59
2021/10/12 12:28:54;;;;;;;15.47;10.53;;;9.00;99.90;;;;;;5084835;28;20461;-59
2021/10/12 12:31:24;;;;;;;17.60;10.53;;;9.00;99.90;;;;;;5093964;28;20450;-59
2021/10/12 12:33:53;;;;;;;16.63;9.07;;;9.00;99.90;;;;;;5093375;28;20446;-59
2021/10/12 12:36:21;;;;;;;15.93;8.93;;;8.90;99.90;;;;;;5093846;28;20453;-59
2021/10/12 12:38:48;;;;;;;15.40;9.80;;;9.00;99.90;;;;;;5081226;28;20466;-59
2021/10/12 12:41:26;;;;;;;17.40;9.10;;;9.00;99.90;;;;;;5073497;28;20447;-59
2021/10/12 12:43:57;;;;;;;14.63;8.87;;;9.00;99.90;;;;;;5091029;28;20536;-59
2021/10/12 12:46:26;;;;;;;16.00;10.10;;;9.00;99.90;;;;;;5093697;28;20928;-59
2021/10/12 12:49:08;;;;;;;14.47;8.97;;;9.00;99.90;;;;;;5093629;28;20875;-59
2021/10/12 12:51:39;;;;;;;15.43;9.80;;;8.80;99.90;;;;;;5093191;28;21097;-59
2021/10/12 12:54:06;;;;;;;18.20;11.30;;;8.80;99.90;;;;;;5083983;28;20449;-59
2021/10/12 12:56:35;;;;;;;16.20;10.27;;;8.70;99.90;;;;;;5073104;28;20457;-59